sensor_id;sensor_type;location;lat;lon;timestamp;temperature;humidity
42715;DHT22;28351;51.480;5.706;2023-07-22T00:01:05;15.60;99.90
42715;DHT22;28351;51.480;5.706;2023-07-22T00:03:31;15.60;99.90
42715;DHT22;28351;51.480;5.706;2023-07-22T00:06:03;15.60;99.90
42715;DHT22;28351;51.480;5.706;2023-07-22T00:08:29;15.50;99.90
42715;DHT22;28351;51.480;5.706;2023-07-22T00:10:54;15.50;99.90
42715;DHT22;28351;51.480;5.706;2023-07-22T00:13:20;15.50;99.90
42715;DHT22;28351;51.480;5.706;2023-07-22T00:15:45;15.50;99.90
42715;DHT22;28351;51.480;5.706;2023-07-22T00:18:11;15.50;99.90
42715;DHT22;28351;51.480;5.706;2023-07-22T00:20:36;15.50;99.90
42715;DHT22;28351;51.480;5.706;2023-07-22T00:23:02;15.50;99.90
42715;DHT22;28351;51.480;5.706;2023-07-22T00:25:27;15.50;99.90
42715;DHT22;28351;51.480;5.706;2023-07-22T00:27:53;15.50;99.90
42715;DHT22;28351;51.480;5.706;2023-07-22T00:30:18;15.40;99.90
42715;DHT22;28351;51.480;5.706;2023-07-22T00:32:44;15.50;99.90
42715;DHT22;28351;51.480;5.706;2023-07-22T00:35:09;15.50;99.90
42715;DHT22;28351;51.480;5.706;2023-07-22T00:37:35;15.40;99.90
42715;DHT22;28351;51.480;5.706;2023-07-22T00:40:01;15.50;99.90
42715;DHT22;28351;51.480;5.706;2023-07-22T00:42:26;15.40;99.90
42715;DHT22;28351;51.480;5.706;2023-07-22T00:44:52;15.40;99.90
42715;DHT22;28351;51.480;5.706;2023-07-22T00:47:17;15.40;99.90
42715;DHT22;28351;51.480;5.706;2023-07-22T00:49:43;15.40;99.90
42715;DHT22;28351;51.480;5.706;2023-07-22T00:52:10;15.40;99.90
42715;DHT22;28351;51.480;5.706;2023-07-22T00:54:35;15.40;99.90
42715;DHT22;28351;51.480;5.706;2023-07-22T00:57:01;15.40;99.90
42715;DHT22;28351;51.480;5.706;2023-07-22T00:59:26;15.40;99.90
42715;DHT22;28351;51.480;5.706;2023-07-22T01:01:52;15.40;99.90
42715;DHT22;28351;51.480;5.706;2023-07-22T01:04:19;15.40;99.90
42715;DHT22;28351;51.480;5.706;2023-07-22T01:06:44;15.40;99.90
42715;DHT22;28351;51.480;5.706;2023-07-22T01:09:10;15.40;99.90
42715;DHT22;28351;51.480;5.706;2023-07-22T01:11:36;15.40;99.90
42715;DHT22;28351;51.480;5.706;2023-07-22T01:14:01;15.40;99.90
42715;DHT22;28351;51.480;5.706;2023-07-22T01:16:28;15.30;99.90
42715;DHT22;28351;51.480;5.706;2023-07-22T01:18:54;15.30;99.90
42715;DHT22;28351;51.480;5.706;2023-07-22T01:21:21;15.30;99.90
42715;DHT22;28351;51.480;5.706;2023-07-22T01:23:47;15.30;99.90
42715;DHT22;28351;51.480;5.706;2023-07-22T01:26:13;15.40;99.90
42715;DHT22;28351;51.480;5.706;2023-07-22T01:28:38;15.30;99.90
42715;DHT22;28351;51.480;5.706;2023-07-22T01:31:04;15.40;99.90
42715;DHT22;28351;51.480;5.706;2023-07-22T01:33:31;15.30;99.90
42715;DHT22;28351;51.480;5.706;2023-07-22T01:35:56;15.30;99.90
42715;DHT22;28351;51.480;5.706;2023-07-22T01:38:22;15.30;99.90
42715;DHT22;28351;51.480;5.706;2023-07-22T01:40:48;15.30;99.90
42715;DHT22;28351;51.480;5.706;2023-07-22T01:43:13;15.20;99.90
42715;DHT22;28351;51.480;5.706;2023-07-22T01:45:39;15.20;99.90
42715;DHT22;28351;51.480;5.706;2023-07-22T01:48:05;15.20;99.90
42715;DHT22;28351;51.480;5.706;2023-07-22T01:50:31;15.20;99.90
42715;DHT22;28351;51.480;5.706;2023-07-22T01:52:57;15.20;99.90
42715;DHT22;28351;51.480;5.706;2023-07-22T01:55:22;15.10;99.90
42715;DHT22;28351;51.480;5.706;2023-07-22T01:57:48;15.10;99.90
42715;DHT22;28351;51.480;5.706;2023-07-22T02:00:13;15.00;99.90
42715;DHT22;28351;51.480;5.706;2023-07-22T02:02:42;15.00;99.90
42715;DHT22;28351;51.480;5.706;2023-07-22T02:05:07;15.00;99.90
42715;DHT22;28351;51.480;5.706;2023-07-22T02:07:35;15.10;99.90
42715;DHT22;28351;51.480;5.706;2023-07-22T02:10:00;15.10;99.90
42715;DHT22;28351;51.480;5.706;2023-07-22T02:12:26;15.00;99.90
42715;DHT22;28351;51.480;5.706;2023-07-22T02:14:51;15.00;99.90
42715;DHT22;28351;51.480;5.706;2023-07-22T02:17:17;15.00;99.90
42715;DHT22;28351;51.480;5.706;2023-07-22T02:19:42;15.10;99.90
42715;DHT22;28351;51.480;5.706;2023-07-22T02:22:09;15.00;99.90
42715;DHT22;28351;51.480;5.706;2023-07-22T02:24:34;15.00;99.90
42715;DHT22;28351;51.480;5.706;2023-07-22T02:27:00;15.00;99.90
42715;DHT22;28351;51.480;5.706;2023-07-22T02:29:25;15.00;99.90
42715;DHT22;28351;51.480;5.706;2023-07-22T02:31:51;15.00;99.90
42715;DHT22;28351;51.480;5.706;2023-07-22T02:34:16;15.00;99.90
42715;DHT22;28351;51.480;5.706;2023-07-22T02:36:42;15.00;99.90
42715;DHT22;28351;51.480;5.706;2023-07-22T02:39:07;15.00;99.90
42715;DHT22;28351;51.480;5.706;2023-07-22T02:41:37;15.00;99.90
42715;DHT22;28351;51.480;5.706;2023-07-22T02:44:03;14.90;99.90
42715;DHT22;28351;51.480;5.706;2023-07-22T02:46:31;14.90;99.90
42715;DHT22;28351;51.480;5.706;2023-07-22T02:48:57;14.90;99.90
42715;DHT22;28351;51.480;5.706;2023-07-22T02:51:22;14.80;99.90
42715;DHT22;28351;51.480;5.706;2023-07-22T02:53:49;14.80;99.90
42715;DHT22;28351;51.480;5.706;2023-07-22T02:56:15;14.80;99.90
42715;DHT22;28351;51.480;5.706;2023-07-22T02:58:40;14.70;99.90
42715;DHT22;28351;51.480;5.706;2023-07-22T03:01:07;14.70;99.90
42715;DHT22;28351;51.480;5.706;2023-07-22T03:03:34;14.70;99.90
42715;DHT22;28351;51.480;5.706;2023-07-22T03:06:00;14.70;99.90
42715;DHT22;28351;51.480;5.706;2023-07-22T03:08:26;14.70;99.90
42715;DHT22;28351;51.480;5.706;2023-07-22T03:10:51;14.60;99.90
42715;DHT22;28351;51.480;5.706;2023-07-22T03:13:17;14.60;99.90
42715;DHT22;28351;51.480;5.706;2023-07-22T03:15:43;14.50;99.90
42715;DHT22;28351;51.480;5.706;2023-07-22T03:18:09;14.40;99.90
42715;DHT22;28351;51.480;5.706;2023-07-22T03:20:37;14.30;99.90
42715;DHT22;28351;51.480;5.706;2023-07-22T03:23:03;14.20;99.90
42715;DHT22;28351;51.480;5.706;2023-07-22T03:25:29;14.10;99.90
42715;DHT22;28351;51.480;5.706;2023-07-22T03:27:55;14.00;99.90
42715;DHT22;28351;51.480;5.706;2023-07-22T03:30:21;13.90;99.90
42715;DHT22;28351;51.480;5.706;2023-07-22T03:32:47;13.90;99.90
42715;DHT22;28351;51.480;5.706;2023-07-22T03:35:13;13.80;99.90
42715;DHT22;28351;51.480;5.706;2023-07-22T03:37:39;13.80;99.90
42715;DHT22;28351;51.480;5.706;2023-07-22T03:40:05;13.80;99.90
42715;DHT22;28351;51.480;5.706;2023-07-22T03:42:39;13.80;99.90
42715;DHT22;28351;51.480;5.706;2023-07-22T03:45:05;13.70;99.90
42715;DHT22;28351;51.480;5.706;2023-07-22T03:47:30;13.70;99.90
42715;DHT22;28351;51.480;5.706;2023-07-22T03:49:56;13.60;99.90
42715;DHT22;28351;51.480;5.706;2023-07-22T03:52:22;13.60;99.90
42715;DHT22;28351;51.480;5.706;2023-07-22T03:54:48;13.60;99.90
42715;DHT22;28351;51.480;5.706;2023-07-22T03:57:13;13.50;99.90
42715;DHT22;28351;51.480;5.706;2023-07-22T03:59:39;13.50;99.90
42715;DHT22;28351;51.480;5.706;2023-07-22T04:02:04;13.50;99.90
42715;DHT22;28351;51.480;5.706;2023-07-22T04:04:30;13.50;99.90
42715;DHT22;28351;51.480;5.706;2023-07-22T04:06:56;13.50;99.90
42715;DHT22;28351;51.480;5.706;2023-07-22T04:09:21;13.50;99.90
42715;DHT22;28351;51.480;5.706;2023-07-22T04:11:47;13.50;99.90
42715;DHT22;28351;51.480;5.706;2023-07-22T04:14:12;13.50;99.90
42715;DHT22;28351;51.480;5.706;2023-07-22T04:16:38;13.50;99.90
42715;DHT22;28351;51.480;5.706;2023-07-22T04:19:04;13.50;99.90
42715;DHT22;28351;51.480;5.706;2023-07-22T04:21:29;13.50;99.90
42715;DHT22;28351;51.480;5.706;2023-07-22T04:23:55;13.50;99.90
42715;DHT22;28351;51.480;5.706;2023-07-22T04:26:20;13.60;99.90
42715;DHT22;28351;51.480;5.706;2023-07-22T04:28:46;13.60;99.90
42715;DHT22;28351;51.480;5.706;2023-07-22T04:31:11;13.50;99.90
42715;DHT22;28351;51.480;5.706;2023-07-22T04:33:37;13.50;99.90
42715;DHT22;28351;51.480;5.706;2023-07-22T04:36:03;13.50;99.90
42715;DHT22;28351;51.480;5.706;2023-07-22T04:38:28;13.50;99.90
42715;DHT22;28351;51.480;5.706;2023-07-22T04:40:54;13.60;99.90
42715;DHT22;28351;51.480;5.706;2023-07-22T04:43:19;13.60;99.90
42715;DHT22;28351;51.480;5.706;2023-07-22T04:45:45;13.70;99.90
42715;DHT22;28351;51.480;5.706;2023-07-22T04:48:14;13.70;99.90
42715;DHT22;28351;51.480;5.706;2023-07-22T04:50:40;13.70;99.90
42715;DHT22;28351;51.480;5.706;2023-07-22T04:53:06;13.80;99.90
42715;DHT22;28351;51.480;5.706;2023-07-22T04:55:32;13.80;99.90
42715;DHT22;28351;51.480;5.706;2023-07-22T04:57:58;13.90;99.90
42715;DHT22;28351;51.480;5.706;2023-07-22T05:00:23;13.90;99.90
42715;DHT22;28351;51.480;5.706;2023-07-22T05:02:49;14.00;99.90
42715;DHT22;28351;51.480;5.706;2023-07-22T05:05:15;14.20;99.90
42715;DHT22;28351;51.480;5.706;2023-07-22T05:07:41;14.40;99.90
42715;DHT22;28351;51.480;5.706;2023-07-22T05:10:07;14.60;99.90
42715;DHT22;28351;51.480;5.706;2023-07-22T05:12:40;14.90;99.90
42715;DHT22;28351;51.480;5.706;2023-07-22T05:15:05;15.00;99.90
42715;DHT22;28351;51.480;5.706;2023-07-22T05:17:31;15.10;99.90
42715;DHT22;28351;51.480;5.706;2023-07-22T05:19:57;15.10;99.90
42715;DHT22;28351;51.480;5.706;2023-07-22T05:22:23;15.00;99.90
42715;DHT22;28351;51.480;5.706;2023-07-22T05:24:48;15.00;99.90
42715;DHT22;28351;51.480;5.706;2023-07-22T05:27:14;15.00;99.90
42715;DHT22;28351;51.480;5.706;2023-07-22T05:29:40;15.10;99.90
42715;DHT22;28351;51.480;5.706;2023-07-22T05:32:05;15.10;99.90
42715;DHT22;28351;51.480;5.706;2023-07-22T05:34:31;15.20;99.90
42715;DHT22;28351;51.480;5.706;2023-07-22T05:36:56;15.30;99.90
42715;DHT22;28351;51.480;5.706;2023-07-22T05:39:22;15.40;99.90
42715;DHT22;28351;51.480;5.706;2023-07-22T05:41:47;15.40;99.90
42715;DHT22;28351;51.480;5.706;2023-07-22T05:44:13;15.50;99.90
42715;DHT22;28351;51.480;5.706;2023-07-22T05:46:39;15.60;99.90
42715;DHT22;28351;51.480;5.706;2023-07-22T05:49:04;15.60;99.90
42715;DHT22;28351;51.480;5.706;2023-07-22T05:51:30;15.60;99.90
42715;DHT22;28351;51.480;5.706;2023-07-22T05:53:56;15.60;99.90
42715;DHT22;28351;51.480;5.706;2023-07-22T05:56:21;15.80;99.90
42715;DHT22;28351;51.480;5.706;2023-07-22T05:58:46;16.00;99.90
42715;DHT22;28351;51.480;5.706;2023-07-22T06:01:12;16.10;99.90
42715;DHT22;28351;51.480;5.706;2023-07-22T06:03:40;16.30;99.90
42715;DHT22;28351;51.480;5.706;2023-07-22T06:06:05;16.20;99.90
42715;DHT22;28351;51.480;5.706;2023-07-22T06:08:31;16.30;99.90
42715;DHT22;28351;51.480;5.706;2023-07-22T06:10:56;16.20;99.90
42715;DHT22;28351;51.480;5.706;2023-07-22T06:13:22;16.30;99.90
42715;DHT22;28351;51.480;5.706;2023-07-22T06:15:47;16.30;99.90
42715;DHT22;28351;51.480;5.706;2023-07-22T06:18:13;16.40;99.90
42715;DHT22;28351;51.480;5.706;2023-07-22T06:20:38;16.40;99.90
42715;DHT22;28351;51.480;5.706;2023-07-22T06:23:04;16.40;99.90
42715;DHT22;28351;51.480;5.706;2023-07-22T06:25:29;16.20;99.90
42715;DHT22;28351;51.480;5.706;2023-07-22T06:27:55;16.30;99.90
42715;DHT22;28351;51.480;5.706;2023-07-22T06:30:20;16.30;99.90
42715;DHT22;28351;51.480;5.706;2023-07-22T06:32:46;16.30;99.90
42715;DHT22;28351;51.480;5.706;2023-07-22T06:35:13;16.40;99.90
42715;DHT22;28351;51.480;5.706;2023-07-22T06:37:38;16.60;99.90
42715;DHT22;28351;51.480;5.706;2023-07-22T06:40:05;16.70;99.90
42715;DHT22;28351;51.480;5.706;2023-07-22T06:42:31;16.90;99.90
42715;DHT22;28351;51.480;5.706;2023-07-22T06:44:56;16.90;99.90
42715;DHT22;28351;51.480;5.706;2023-07-22T06:47:22;16.90;99.90
42715;DHT22;28351;51.480;5.706;2023-07-22T06:49:47;16.70;99.90
42715;DHT22;28351;51.480;5.706;2023-07-22T06:52:13;16.70;99.90
42715;DHT22;28351;51.480;5.706;2023-07-22T06:54:39;16.90;99.90
42715;DHT22;28351;51.480;5.706;2023-07-22T06:57:04;16.90;99.90
42715;DHT22;28351;51.480;5.706;2023-07-22T06:59:31;16.80;99.90
42715;DHT22;28351;51.480;5.706;2023-07-22T07:01:57;16.90;99.90
42715;DHT22;28351;51.480;5.706;2023-07-22T07:04:22;17.10;99.90
42715;DHT22;28351;51.480;5.706;2023-07-22T07:06:49;17.30;99.90
42715;DHT22;28351;51.480;5.706;2023-07-22T07:09:14;17.30;99.90
42715;DHT22;28351;51.480;5.706;2023-07-22T07:11:40;17.30;99.90
42715;DHT22;28351;51.480;5.706;2023-07-22T07:14:06;17.20;99.90
42715;DHT22;28351;51.480;5.706;2023-07-22T07:16:32;17.40;99.90
42715;DHT22;28351;51.480;5.706;2023-07-22T07:18:59;17.60;99.90
42715;DHT22;28351;51.480;5.706;2023-07-22T07:21:25;17.90;99.90
42715;DHT22;28351;51.480;5.706;2023-07-22T07:23:51;18.20;99.90
42715;DHT22;28351;51.480;5.706;2023-07-22T07:26:17;18.20;99.90
42715;DHT22;28351;51.480;5.706;2023-07-22T07:28:42;18.20;99.90
42715;DHT22;28351;51.480;5.706;2023-07-22T07:31:08;18.30;99.90
42715;DHT22;28351;51.480;5.706;2023-07-22T07:33:34;18.50;99.90
42715;DHT22;28351;51.480;5.706;2023-07-22T07:35:59;18.70;99.90
42715;DHT22;28351;51.480;5.706;2023-07-22T07:38:25;18.80;99.90
42715;DHT22;28351;51.480;5.706;2023-07-22T07:40:52;19.10;99.90
42715;DHT22;28351;51.480;5.706;2023-07-22T07:43:17;19.30;99.90
42715;DHT22;28351;51.480;5.706;2023-07-22T07:45:43;19.30;99.90
42715;DHT22;28351;51.480;5.706;2023-07-22T07:48:08;19.10;99.90
42715;DHT22;28351;51.480;5.706;2023-07-22T07:50:34;19.20;99.90
42715;DHT22;28351;51.480;5.706;2023-07-22T07:52:59;19.20;99.90
42715;DHT22;28351;51.480;5.706;2023-07-22T07:55:25;19.10;99.90
42715;DHT22;28351;51.480;5.706;2023-07-22T07:57:51;19.30;99.90
42715;DHT22;28351;51.480;5.706;2023-07-22T08:00:16;19.40;99.90
42715;DHT22;28351;51.480;5.706;2023-07-22T08:02:42;19.50;99.90
42715;DHT22;28351;51.480;5.706;2023-07-22T08:05:07;19.40;99.90
42715;DHT22;28351;51.480;5.706;2023-07-22T08:07:33;19.40;99.90
42715;DHT22;28351;51.480;5.706;2023-07-22T08:10:00;19.50;99.90
42715;DHT22;28351;51.480;5.706;2023-07-22T08:12:26;19.40;99.90
42715;DHT22;28351;51.480;5.706;2023-07-22T08:14:52;19.50;99.90
42715;DHT22;28351;51.480;5.706;2023-07-22T08:17:18;19.90;99.90
42715;DHT22;28351;51.480;5.706;2023-07-22T08:19:43;19.90;99.90
42715;DHT22;28351;51.480;5.706;2023-07-22T08:22:09;19.80;99.90
42715;DHT22;28351;51.480;5.706;2023-07-22T08:24:35;19.90;99.90
42715;DHT22;28351;51.480;5.706;2023-07-22T08:27:00;20.10;99.90
42715;DHT22;28351;51.480;5.706;2023-07-22T08:29:26;20.20;99.90
42715;DHT22;28351;51.480;5.706;2023-07-22T08:31:51;20.00;99.90
42715;DHT22;28351;51.480;5.706;2023-07-22T08:34:17;20.00;99.90
42715;DHT22;28351;51.480;5.706;2023-07-22T08:36:42;20.00;99.90
42715;DHT22;28351;51.480;5.706;2023-07-22T08:39:08;20.10;99.90
42715;DHT22;28351;51.480;5.706;2023-07-22T08:41:33;20.00;99.90
42715;DHT22;28351;51.480;5.706;2023-07-22T08:44:00;20.30;99.90
42715;DHT22;28351;51.480;5.706;2023-07-22T08:46:28;20.20;99.90
42715;DHT22;28351;51.480;5.706;2023-07-22T08:48:54;20.30;99.90
42715;DHT22;28351;51.480;5.706;2023-07-22T08:51:19;20.40;99.90
42715;DHT22;28351;51.480;5.706;2023-07-22T08:53:47;20.30;99.90
42715;DHT22;28351;51.480;5.706;2023-07-22T08:56:12;20.30;99.90
42715;DHT22;28351;51.480;5.706;2023-07-22T08:58:38;20.20;99.90
42715;DHT22;28351;51.480;5.706;2023-07-22T09:01:04;20.40;99.90
42715;DHT22;28351;51.480;5.706;2023-07-22T09:03:30;20.70;99.90
42715;DHT22;28351;51.480;5.706;2023-07-22T09:05:55;20.90;99.90
42715;DHT22;28351;51.480;5.706;2023-07-22T09:08:21;21.10;99.90
42715;DHT22;28351;51.480;5.706;2023-07-22T09:10:47;21.20;99.90
42715;DHT22;28351;51.480;5.706;2023-07-22T09:13:13;21.00;99.90
42715;DHT22;28351;51.480;5.706;2023-07-22T09:15:39;20.80;99.90
42715;DHT22;28351;51.480;5.706;2023-07-22T09:18:05;20.90;99.90
42715;DHT22;28351;51.480;5.706;2023-07-22T09:20:30;21.10;99.90
42715;DHT22;28351;51.480;5.706;2023-07-22T09:22:56;21.50;99.90
42715;DHT22;28351;51.480;5.706;2023-07-22T09:25:23;21.80;99.60
42715;DHT22;28351;51.480;5.706;2023-07-22T09:27:49;22.20;98.70
42715;DHT22;28351;51.480;5.706;2023-07-22T09:30:28;22.30;98.80
42715;DHT22;28351;51.480;5.706;2023-07-22T09:32:57;22.10;98.80
42715;DHT22;28351;51.480;5.706;2023-07-22T09:35:25;22.40;98.80
42715;DHT22;28351;51.480;5.706;2023-07-22T09:37:52;22.50;98.20
42715;DHT22;28351;51.480;5.706;2023-07-22T09:40:24;22.30;97.70
42715;DHT22;28351;51.480;5.706;2023-07-22T09:45:16;22.90;96.30
42715;DHT22;28351;51.480;5.706;2023-07-22T09:47:45;23.00;96.40
42715;DHT22;28351;51.480;5.706;2023-07-22T09:50:14;23.10;95.20
42715;DHT22;28351;51.480;5.706;2023-07-22T09:52:58;23.10;96.30
42715;DHT22;28351;51.480;5.706;2023-07-22T09:55:26;23.30;96.00
42715;DHT22;28351;51.480;5.706;2023-07-22T09:57:57;23.00;96.40
42715;DHT22;28351;51.480;5.706;2023-07-22T10:00:24;22.70;96.10
42715;DHT22;28351;51.480;5.706;2023-07-22T10:02:51;23.30;95.40
42715;DHT22;28351;51.480;5.706;2023-07-22T10:05:17;23.80;95.60
42715;DHT22;28351;51.480;5.706;2023-07-22T10:07:44;23.60;94.20
42715;DHT22;28351;51.480;5.706;2023-07-22T10:10:11;23.10;95.10
42715;DHT22;28351;51.480;5.706;2023-07-22T10:12:39;22.80;95.10
42715;DHT22;28351;51.480;5.706;2023-07-22T10:15:05;22.60;95.80
42715;DHT22;28351;51.480;5.706;2023-07-22T10:17:31;22.70;95.70
42715;DHT22;28351;51.480;5.706;2023-07-22T10:19:56;22.90;95.40
42715;DHT22;28351;51.480;5.706;2023-07-22T10:22:22;22.50;95.40
42715;DHT22;28351;51.480;5.706;2023-07-22T10:24:48;22.40;95.70
42715;DHT22;28351;51.480;5.706;2023-07-22T10:27:14;22.30;95.80
42715;DHT22;28351;51.480;5.706;2023-07-22T10:29:41;22.60;95.70
42715;DHT22;28351;51.480;5.706;2023-07-22T10:32:07;22.60;95.40
42715;DHT22;28351;51.480;5.706;2023-07-22T10:34:32;22.50;95.60
42715;DHT22;28351;51.480;5.706;2023-07-22T10:36:58;21.90;95.80
42715;DHT22;28351;51.480;5.706;2023-07-22T10:39:27;21.60;96.40
42715;DHT22;28351;51.480;5.706;2023-07-22T10:42:02;21.20;96.90
42715;DHT22;28351;51.480;5.706;2023-07-22T10:44:33;21.30;96.80
42715;DHT22;28351;51.480;5.706;2023-07-22T10:46:59;21.40;96.80
42715;DHT22;28351;51.480;5.706;2023-07-22T10:49:24;22.10;96.30
42715;DHT22;28351;51.480;5.706;2023-07-22T10:51:53;22.70;95.80
42715;DHT22;28351;51.480;5.706;2023-07-22T10:54:31;23.20;94.10
42715;DHT22;28351;51.480;5.706;2023-07-22T10:56:58;23.40;94.10
42715;DHT22;28351;51.480;5.706;2023-07-22T10:59:29;23.40;94.20
42715;DHT22;28351;51.480;5.706;2023-07-22T11:01:57;23.60;93.10
42715;DHT22;28351;51.480;5.706;2023-07-22T11:04:24;24.00;93.00
42715;DHT22;28351;51.480;5.706;2023-07-22T11:06:56;24.30;93.30
42715;DHT22;28351;51.480;5.706;2023-07-22T11:16:57;24.50;91.70
42715;DHT22;28351;51.480;5.706;2023-07-22T11:19:23;24.50;91.50
42715;DHT22;28351;51.480;5.706;2023-07-22T11:21:49;24.40;91.60
42715;DHT22;28351;51.480;5.706;2023-07-22T11:24:15;24.80;90.90
42715;DHT22;28351;51.480;5.706;2023-07-22T11:26:40;24.50;90.80
42715;DHT22;28351;51.480;5.706;2023-07-22T11:29:06;24.70;90.30
42715;DHT22;28351;51.480;5.706;2023-07-22T11:33:57;25.30;87.80
42715;DHT22;28351;51.480;5.706;2023-07-22T11:36:23;25.60;86.90
42715;DHT22;28351;51.480;5.706;2023-07-22T11:38:48;25.80;87.70
42715;DHT22;28351;51.480;5.706;2023-07-22T11:41:14;26.40;86.40
42715;DHT22;28351;51.480;5.706;2023-07-22T11:43:40;26.30;84.90
42715;DHT22;28351;51.480;5.706;2023-07-22T11:46:05;26.10;86.70
42715;DHT22;28351;51.480;5.706;2023-07-22T11:48:31;25.60;87.50
42715;DHT22;28351;51.480;5.706;2023-07-22T11:51:00;24.90;88.70
42715;DHT22;28351;51.480;5.706;2023-07-22T11:53:26;24.90;88.30
42715;DHT22;28351;51.480;5.706;2023-07-22T11:55:54;24.60;88.00
42715;DHT22;28351;51.480;5.706;2023-07-22T11:58:25;24.20;89.70
42715;DHT22;28351;51.480;5.706;2023-07-22T12:01:05;23.90;89.90
42715;DHT22;28351;51.480;5.706;2023-07-22T12:03:32;24.40;90.50
42715;DHT22;28351;51.480;5.706;2023-07-22T12:06:00;25.30;89.40
42715;DHT22;28351;51.480;5.706;2023-07-22T12:08:25;25.80;87.70
42715;DHT22;28351;51.480;5.706;2023-07-22T12:11:00;26.70;87.00
42715;DHT22;28351;51.480;5.706;2023-07-22T12:13:26;26.90;84.90
42715;DHT22;28351;51.480;5.706;2023-07-22T12:16:01;27.00;84.00
42715;DHT22;28351;51.480;5.706;2023-07-22T12:18:26;26.90;83.20
42715;DHT22;28351;51.480;5.706;2023-07-22T12:20:52;26.30;84.20
42715;DHT22;28351;51.480;5.706;2023-07-22T12:23:17;26.00;84.40
42715;DHT22;28351;51.480;5.706;2023-07-22T12:25:44;25.90;83.90
42715;DHT22;28351;51.480;5.706;2023-07-22T12:28:09;25.50;84.20
42715;DHT22;28351;51.480;5.706;2023-07-22T12:30:36;25.30;85.60
42715;DHT22;28351;51.480;5.706;2023-07-22T12:33:02;24.80;85.80
42715;DHT22;28351;51.480;5.706;2023-07-22T12:35:27;24.40;87.00
42715;DHT22;28351;51.480;5.706;2023-07-22T12:37:53;24.20;86.50
42715;DHT22;28351;51.480;5.706;2023-07-22T12:40:18;24.20;87.10
42715;DHT22;28351;51.480;5.706;2023-07-22T12:42:44;24.60;87.00
42715;DHT22;28351;51.480;5.706;2023-07-22T12:45:12;24.70;85.70
42715;DHT22;28351;51.480;5.706;2023-07-22T12:47:38;25.30;85.40
42715;DHT22;28351;51.480;5.706;2023-07-22T12:50:04;26.20;83.50
42715;DHT22;28351;51.480;5.706;2023-07-22T12:52:30;26.40;83.40
42715;DHT22;28351;51.480;5.706;2023-07-22T12:54:55;27.10;82.80
42715;DHT22;28351;51.480;5.706;2023-07-22T12:57:21;27.10;81.40
42715;DHT22;28351;51.480;5.706;2023-07-22T12:59:46;26.80;82.40
42715;DHT22;28351;51.480;5.706;2023-07-22T13:02:12;26.10;83.00
42715;DHT22;28351;51.480;5.706;2023-07-22T13:04:38;25.90;83.60
42715;DHT22;28351;51.480;5.706;2023-07-22T13:07:03;26.50;84.10
42715;DHT22;28351;51.480;5.706;2023-07-22T13:09:29;26.70;81.70
42715;DHT22;28351;51.480;5.706;2023-07-22T13:11:54;26.40;81.80
42715;DHT22;28351;51.480;5.706;2023-07-22T13:14:20;25.70;82.40
42715;DHT22;28351;51.480;5.706;2023-07-22T13:16:46;25.30;82.50
42715;DHT22;28351;51.480;5.706;2023-07-22T13:19:11;25.40;83.40
42715;DHT22;28351;51.480;5.706;2023-07-22T13:21:37;25.70;82.70
42715;DHT22;28351;51.480;5.706;2023-07-22T13:24:02;26.60;81.50
42715;DHT22;28351;51.480;5.706;2023-07-22T13:26:28;27.20;80.60
42715;DHT22;28351;51.480;5.706;2023-07-22T13:28:53;27.20;79.50
42715;DHT22;28351;51.480;5.706;2023-07-22T13:31:19;26.80;79.30
42715;DHT22;28351;51.480;5.706;2023-07-22T13:33:44;27.20;80.90
42715;DHT22;28351;51.480;5.706;2023-07-22T13:36:10;26.90;81.10
42715;DHT22;28351;51.480;5.706;2023-07-22T13:38:35;26.90;80.50
42715;DHT22;28351;51.480;5.706;2023-07-22T13:41:01;28.40;78.50
42715;DHT22;28351;51.480;5.706;2023-07-22T13:43:26;28.70;76.90
42715;DHT22;28351;51.480;5.706;2023-07-22T13:45:53;28.90;76.80
42715;DHT22;28351;51.480;5.706;2023-07-22T13:48:19;28.60;77.40
42715;DHT22;28351;51.480;5.706;2023-07-22T13:50:44;27.60;77.70
42715;DHT22;28351;51.480;5.706;2023-07-22T13:53:10;26.80;79.00
42715;DHT22;28351;51.480;5.706;2023-07-22T13:55:35;26.00;79.30
42715;DHT22;28351;51.480;5.706;2023-07-22T13:58:01;25.60;80.70
42715;DHT22;28351;51.480;5.706;2023-07-22T14:00:26;27.70;78.50
42715;DHT22;28351;51.480;5.706;2023-07-22T14:02:52;28.50;75.40
42715;DHT22;28351;51.480;5.706;2023-07-22T14:05:17;27.50;75.10
42715;DHT22;28351;51.480;5.706;2023-07-22T14:07:43;27.00;76.10
42715;DHT22;28351;51.480;5.706;2023-07-22T14:10:08;26.80;76.10
42715;DHT22;28351;51.480;5.706;2023-07-22T14:12:35;26.20;77.40
42715;DHT22;28351;51.480;5.706;2023-07-22T14:15:00;26.40;77.60
42715;DHT22;28351;51.480;5.706;2023-07-22T14:17:26;26.60;77.50
42715;DHT22;28351;51.480;5.706;2023-07-22T14:19:52;28.10;74.10
42715;DHT22;28351;51.480;5.706;2023-07-22T14:22:17;29.30;72.80
42715;DHT22;28351;51.480;5.706;2023-07-22T14:24:43;29.20;71.90
42715;DHT22;28351;51.480;5.706;2023-07-22T14:27:08;28.40;73.00
42715;DHT22;28351;51.480;5.706;2023-07-22T14:29:34;28.30;73.30
42715;DHT22;28351;51.480;5.706;2023-07-22T14:31:59;28.10;74.00
42715;DHT22;28351;51.480;5.706;2023-07-22T14:34:25;27.30;74.80
42715;DHT22;28351;51.480;5.706;2023-07-22T14:36:50;26.70;74.80
42715;DHT22;28351;51.480;5.706;2023-07-22T14:39:16;26.80;75.60
42715;DHT22;28351;51.480;5.706;2023-07-22T14:41:42;27.50;75.30
42715;DHT22;28351;51.480;5.706;2023-07-22T14:44:09;28.00;75.30
42715;DHT22;28351;51.480;5.706;2023-07-22T14:46:34;28.00;74.10
42715;DHT22;28351;51.480;5.706;2023-07-22T14:49:00;27.30;75.40
42715;DHT22;28351;51.480;5.706;2023-07-22T14:51:25;27.30;74.10
42715;DHT22;28351;51.480;5.706;2023-07-22T14:53:51;26.60;74.90
42715;DHT22;28351;51.480;5.706;2023-07-22T14:56:17;26.20;76.20
42715;DHT22;28351;51.480;5.706;2023-07-22T14:58:42;26.00;77.20
42715;DHT22;28351;51.480;5.706;2023-07-22T15:01:08;25.60;76.60
42715;DHT22;28351;51.480;5.706;2023-07-22T15:03:34;26.10;76.10
42715;DHT22;28351;51.480;5.706;2023-07-22T15:06:00;25.70;75.70
42715;DHT22;28351;51.480;5.706;2023-07-22T15:08:25;25.00;75.90
42715;DHT22;28351;51.480;5.706;2023-07-22T15:10:50;24.70;77.40
42715;DHT22;28351;51.480;5.706;2023-07-22T15:13:16;24.60;77.30
42715;DHT22;28351;51.480;5.706;2023-07-22T15:15:41;24.60;77.70
42715;DHT22;28351;51.480;5.706;2023-07-22T15:18:07;24.60;77.40
42715;DHT22;28351;51.480;5.706;2023-07-22T15:20:33;24.60;78.90
42715;DHT22;28351;51.480;5.706;2023-07-22T15:22:58;24.40;77.70
42715;DHT22;28351;51.480;5.706;2023-07-22T15:25:24;24.30;78.80
42715;DHT22;28351;51.480;5.706;2023-07-22T15:27:49;24.30;78.10
42715;DHT22;28351;51.480;5.706;2023-07-22T15:30:15;24.40;78.80
42715;DHT22;28351;51.480;5.706;2023-07-22T15:32:40;24.40;78.50
42715;DHT22;28351;51.480;5.706;2023-07-22T15:35:06;24.40;78.50